sensor_id;sensor_type;location;lat;lon;timestamp;P1;durP1;ratioP1;P2;durP2;ratioP2
691;SDS011;328;50.086;8.576;2022-12-07T00:02:28;16.03;;;9.03;;
691;SDS011;328;50.086;8.576;2022-12-07T00:04:56;13.23;;;8.80;;
691;SDS011;328;50.086;8.576;2022-12-07T00:07:23;15.53;;;9.60;;
691;SDS011;328;50.086;8.576;2022-12-07T00:09:56;13.53;;;8.40;;
691;SDS011;328;50.086;8.576;2022-12-07T00:12:27;10.97;;;7.43;;
691;SDS011;328;50.086;8.576;2022-12-07T00:14:57;14.00;;;9.17;;
691;SDS011;328;50.086;8.576;2022-12-07T00:17:26;14.20;;;8.37;;
691;SDS011;328;50.086;8.576;2022-12-07T00:19:53;14.70;;;9.03;;
691;SDS011;328;50.086;8.576;2022-12-07T00:22:21;16.13;;;9.10;;
691;SDS011;328;50.086;8.576;2022-12-07T00:24:48;15.10;;;8.97;;
691;SDS011;328;50.086;8.576;2022-12-07T00:27:17;13.30;;;9.13;;
691;SDS011;328;50.086;8.576;2022-12-07T00:29:45;14.10;;;8.37;;
691;SDS011;328;50.086;8.576;2022-12-07T00:32:12;13.48;;;9.15;;
691;SDS011;328;50.086;8.576;2022-12-07T00:34:40;16.92;;;9.80;;
691;SDS011;328;50.086;8.576;2022-12-07T00:37:08;15.35;;;8.77;;
691;SDS011;328;50.086;8.576;2022-12-07T00:39:35;14.10;;;9.40;;
691;SDS011;328;50.086;8.576;2022-12-07T00:42:03;15.13;;;9.87;;
691;SDS011;328;50.086;8.576;2022-12-07T00:44:31;14.13;;;8.97;;
691;SDS011;328;50.086;8.576;2022-12-07T00:46:59;14.98;;;8.85;;
691;SDS011;328;50.086;8.576;2022-12-07T00:49:27;12.90;;;8.50;;
691;SDS011;328;50.086;8.576;2022-12-07T00:51:54;11.30;;;7.70;;
691;SDS011;328;50.086;8.576;2022-12-07T00:54:22;12.83;;;8.87;;
691;SDS011;328;50.086;8.576;2022-12-07T00:56:49;12.37;;;7.57;;
691;SDS011;328;50.086;8.576;2022-12-07T00:59:17;16.23;;;8.63;;
691;SDS011;328;50.086;8.576;2022-12-07T01:01:46;14.77;;;8.60;;
691;SDS011;328;50.086;8.576;2022-12-07T01:04:13;14.10;;;9.40;;
691;SDS011;328;50.086;8.576;2022-12-07T01:06:41;14.73;;;8.77;;
691;SDS011;328;50.086;8.576;2022-12-07T01:09:08;14.80;;;9.17;;
691;SDS011;328;50.086;8.576;2022-12-07T01:11:36;11.60;;;7.80;;
691;SDS011;328;50.086;8.576;2022-12-07T01:14:04;15.07;;;9.33;;
691;SDS011;328;50.086;8.576;2022-12-07T01:16:31;17.37;;;9.17;;
691;SDS011;328;50.086;8.576;2022-12-07T01:19:01;17.13;;;9.87;;
691;SDS011;328;50.086;8.576;2022-12-07T01:21:32;16.60;;;8.73;;
691;SDS011;328;50.086;8.576;2022-12-07T01:24:04;14.70;;;9.47;;
691;SDS011;328;50.086;8.576;2022-12-07T01:26:33;13.63;;;9.57;;
691;SDS011;328;50.086;8.576;2022-12-07T01:29:00;12.47;;;8.33;;
691;SDS011;328;50.086;8.576;2022-12-07T01:31:28;12.25;;;8.70;;
691;SDS011;328;50.086;8.576;2022-12-07T01:33:57;10.80;;;7.73;;
691;SDS011;328;50.086;8.576;2022-12-07T01:36:27;13.83;;;7.67;;
691;SDS011;328;50.086;8.576;2022-12-07T01:38:56;16.33;;;9.50;;
691;SDS011;328;50.086;8.576;2022-12-07T01:41:25;12.27;;;8.20;;
691;SDS011;328;50.086;8.576;2022-12-07T01:44:11;12.57;;;7.57;;
691;SDS011;328;50.086;8.576;2022-12-07T01:46:44;14.85;;;8.50;;
691;SDS011;328;50.086;8.576;2022-12-07T01:49:14;12.77;;;7.77;;
691;SDS011;328;50.086;8.576;2022-12-07T01:51:45;13.27;;;8.13;;
691;SDS011;328;50.086;8.576;2022-12-07T01:54:13;14.00;;;8.73;;
691;SDS011;328;50.086;8.576;2022-12-07T01:56:42;11.67;;;8.13;;
691;SDS011;328;50.086;8.576;2022-12-07T01:59:16;13.25;;;8.00;;
691;SDS011;328;50.086;8.576;2022-12-07T02:01:45;11.83;;;7.40;;
691;SDS011;328;50.086;8.576;2022-12-07T02:04:12;10.10;;;6.43;;
691;SDS011;328;50.086;8.576;2022-12-07T02:06:40;13.37;;;7.67;;
691;SDS011;328;50.086;8.576;2022-12-07T02:09:10;14.43;;;7.53;;
691;SDS011;328;50.086;8.576;2022-12-07T02:11:38;12.68;;;7.47;;
691;SDS011;328;50.086;8.576;2022-12-07T02:14:06;11.95;;;8.02;;
691;SDS011;328;50.086;8.576;2022-12-07T02:16:35;13.53;;;7.80;;
691;SDS011;328;50.086;8.576;2022-12-07T02:22:10;14.07;;;8.00;;
691;SDS011;328;50.086;8.576;2022-12-07T02:24:50;13.20;;;8.43;;
691;SDS011;328;50.086;8.576;2022-12-07T02:27:26;11.85;;;6.70;;
691;SDS011;328;50.086;8.576;2022-12-07T02:30:01;12.10;;;7.10;;
691;SDS011;328;50.086;8.576;2022-12-07T02:32:33;13.80;;;8.65;;
691;SDS011;328;50.086;8.576;2022-12-07T02:35:07;9.93;;;7.07;;
691;SDS011;328;50.086;8.576;2022-12-07T02:37:37;11.70;;;8.77;;
691;SDS011;328;50.086;8.576;2022-12-07T02:40:11;13.75;;;8.40;;
691;SDS011;328;50.086;8.576;2022-12-07T02:42:42;12.97;;;6.67;;
691;SDS011;328;50.086;8.576;2022-12-07T02:45:15;11.60;;;7.03;;
691;SDS011;328;50.086;8.576;2022-12-07T02:47:45;12.90;;;7.65;;
691;SDS011;328;50.086;8.576;2022-12-07T02:50:13;9.30;;;6.20;;
691;SDS011;328;50.086;8.576;2022-12-07T02:52:41;11.80;;;7.33;;
691;SDS011;328;50.086;8.576;2022-12-07T02:55:08;11.83;;;6.00;;
691;SDS011;328;50.086;8.576;2022-12-07T02:57:42;10.57;;;6.60;;
691;SDS011;328;50.086;8.576;2022-12-07T03:00:18;16.93;;;7.90;;
691;SDS011;328;50.086;8.576;2022-12-07T03:02:49;11.75;;;6.97;;
691;SDS011;328;50.086;8.576;2022-12-07T03:05:26;9.93;;;6.50;;
691;SDS011;328;50.086;8.576;2022-12-07T03:08:12;10.27;;;6.88;;
691;SDS011;328;50.086;8.576;2022-12-07T03:10:42;9.87;;;6.30;;
691;SDS011;328;50.086;8.576;2022-12-07T03:13:17;12.60;;;7.90;;
691;SDS011;328;50.086;8.576;2022-12-07T03:15:51;16.90;;;7.17;;
691;SDS011;328;50.086;8.576;2022-12-07T03:18:23;10.90;;;7.40;;
691;SDS011;328;50.086;8.576;2022-12-07T03:20:53;10.20;;;7.03;;
691;SDS011;328;50.086;8.576;2022-12-07T03:23:22;13.33;;;6.10;;
691;SDS011;328;50.086;8.576;2022-12-07T03:25:58;9.97;;;7.60;;
691;SDS011;328;50.086;8.576;2022-12-07T03:28:29;14.30;;;6.67;;
691;SDS011;328;50.086;8.576;2022-12-07T03:31:01;8.43;;;6.33;;
691;SDS011;328;50.086;8.576;2022-12-07T03:33:31;8.03;;;5.53;;
691;SDS011;328;50.086;8.576;2022-12-07T03:36:03;11.13;;;7.00;;
691;SDS011;328;50.086;8.576;2022-12-07T03:38:33;10.37;;;5.80;;
691;SDS011;328;50.086;8.576;2022-12-07T03:41:04;9.40;;;5.57;;
691;SDS011;328;50.086;8.576;2022-12-07T03:43:34;13.47;;;6.47;;
691;SDS011;328;50.086;8.576;2022-12-07T03:46:06;10.27;;;6.80;;
691;SDS011;328;50.086;8.576;2022-12-07T03:48:40;11.50;;;6.00;;
691;SDS011;328;50.086;8.576;2022-12-07T03:51:12;11.97;;;6.97;;
691;SDS011;328;50.086;8.576;2022-12-07T03:53:43;9.00;;;6.07;;
691;SDS011;328;50.086;8.576;2022-12-07T03:56:13;8.40;;;5.47;;
691;SDS011;328;50.086;8.576;2022-12-07T03:58:41;11.27;;;6.67;;
691;SDS011;328;50.086;8.576;2022-12-07T04:01:10;9.20;;;5.20;;
691;SDS011;328;50.086;8.576;2022-12-07T04:03:38;9.20;;;6.00;;
691;SDS011;328;50.086;8.576;2022-12-07T04:06:06;8.60;;;5.10;;
691;SDS011;328;50.086;8.576;2022-12-07T04:08:33;13.00;;;6.27;;
691;SDS011;328;50.086;8.576;2022-12-07T04:11:01;8.80;;;5.77;;
691;SDS011;328;50.086;8.576;2022-12-07T04:13:28;18.53;;;6.33;;
691;SDS011;328;50.086;8.576;2022-12-07T04:16:17;9.20;;;6.60;;
691;SDS011;328;50.086;8.576;2022-12-07T04:18:45;8.83;;;5.20;;
691;SDS011;328;50.086;8.576;2022-12-07T04:21:13;9.07;;;5.53;;
691;SDS011;328;50.086;8.576;2022-12-07T04:23:40;9.40;;;5.82;;
691;SDS011;328;50.086;8.576;2022-12-07T04:26:08;9.77;;;6.60;;
691;SDS011;328;50.086;8.576;2022-12-07T04:28:35;12.13;;;5.93;;
691;SDS011;328;50.086;8.576;2022-12-07T04:31:03;7.10;;;5.77;;
691;SDS011;328;50.086;8.576;2022-12-07T04:33:32;9.57;;;5.63;;
691;SDS011;328;50.086;8.576;2022-12-07T04:36:00;11.50;;;6.83;;
691;SDS011;328;50.086;8.576;2022-12-07T04:38:27;11.53;;;5.10;;
691;SDS011;328;50.086;8.576;2022-12-07T04:40:55;9.53;;;5.20;;
691;SDS011;328;50.086;8.576;2022-12-07T04:43:22;13.20;;;6.53;;
691;SDS011;328;50.086;8.576;2022-12-07T04:45:50;8.13;;;5.50;;
691;SDS011;328;50.086;8.576;2022-12-07T04:48:17;9.10;;;5.37;;
691;SDS011;328;50.086;8.576;2022-12-07T04:50:48;11.43;;;6.05;;
691;SDS011;328;50.086;8.576;2022-12-07T04:53:16;11.40;;;6.57;;
691;SDS011;328;50.086;8.576;2022-12-07T04:55:44;9.53;;;5.67;;
691;SDS011;328;50.086;8.576;2022-12-07T04:58:11;9.83;;;6.20;;
691;SDS011;328;50.086;8.576;2022-12-07T05:00:39;9.35;;;6.28;;
691;SDS011;328;50.086;8.576;2022-12-07T05:03:07;9.40;;;5.40;;
691;SDS011;328;50.086;8.576;2022-12-07T05:05:34;9.15;;;6.03;;
691;SDS011;328;50.086;8.576;2022-12-07T05:08:03;9.87;;;6.17;;
691;SDS011;328;50.086;8.576;2022-12-07T05:10:31;10.13;;;5.47;;
691;SDS011;328;50.086;8.576;2022-12-07T05:12:58;9.80;;;5.10;;
691;SDS011;328;50.086;8.576;2022-12-07T05:15:26;7.90;;;5.40;;
691;SDS011;328;50.086;8.576;2022-12-07T05:17:54;11.63;;;6.53;;
691;SDS011;328;50.086;8.576;2022-12-07T05:20:22;10.10;;;5.77;;
691;SDS011;328;50.086;8.576;2022-12-07T05:22:49;14.07;;;5.97;;
691;SDS011;328;50.086;8.576;2022-12-07T05:25:18;11.37;;;6.07;;
691;SDS011;328;50.086;8.576;2022-12-07T05:27:46;9.70;;;5.07;;
691;SDS011;328;50.086;8.576;2022-12-07T05:30:14;10.80;;;5.43;;
691;SDS011;328;50.086;8.576;2022-12-07T05:32:42;9.87;;;6.37;;
691;SDS011;328;50.086;8.576;2022-12-07T05:35:09;10.40;;;5.80;;
691;SDS011;328;50.086;8.576;2022-12-07T05:37:37;11.30;;;5.97;;
691;SDS011;328;50.086;8.576;2022-12-07T05:40:05;11.90;;;6.00;;
691;SDS011;328;50.086;8.576;2022-12-07T05:42:34;8.63;;;5.47;;
691;SDS011;328;50.086;8.576;2022-12-07T05:45:02;19.23;;;6.70;;
691;SDS011;328;50.086;8.576;2022-12-07T05:47:30;13.93;;;6.50;;
691;SDS011;328;50.086;8.576;2022-12-07T05:49:58;8.60;;;6.20;;
691;SDS011;328;50.086;8.576;2022-12-07T05:52:26;10.75;;;7.00;;
691;SDS011;328;50.086;8.576;2022-12-07T05:54:54;13.23;;;6.50;;
691;SDS011;328;50.086;8.576;2022-12-07T05:57:21;10.40;;;6.17;;
691;SDS011;328;50.086;8.576;2022-12-07T05:59:50;9.23;;;6.22;;
691;SDS011;328;50.086;8.576;2022-12-07T06:02:17;10.93;;;6.57;;
691;SDS011;328;50.086;8.576;2022-12-07T06:04:45;13.30;;;6.60;;
691;SDS011;328;50.086;8.576;2022-12-07T06:07:14;11.67;;;6.80;;
691;SDS011;328;50.086;8.576;2022-12-07T06:09:43;10.10;;;6.40;;
691;SDS011;328;50.086;8.576;2022-12-07T06:12:11;9.63;;;6.18;;
691;SDS011;328;50.086;8.576;2022-12-07T06:14:58;10.10;;;6.33;;
691;SDS011;328;50.086;8.576;2022-12-07T06:17:26;10.87;;;6.90;;
691;SDS011;328;50.086;8.576;2022-12-07T06:19:54;14.77;;;7.00;;
691;SDS011;328;50.086;8.576;2022-12-07T06:22:21;9.60;;;6.00;;
691;SDS011;328;50.086;8.576;2022-12-07T06:24:49;12.60;;;6.67;;
691;SDS011;328;50.086;8.576;2022-12-07T06:27:35;10.13;;;6.47;;
691;SDS011;328;50.086;8.576;2022-12-07T06:30:07;14.10;;;6.60;;
691;SDS011;328;50.086;8.576;2022-12-07T06:32:36;10.90;;;6.90;;
691;SDS011;328;50.086;8.576;2022-12-07T06:35:04;12.50;;;6.70;;
691;SDS011;328;50.086;8.576;2022-12-07T06:37:34;9.30;;;6.78;;
691;SDS011;328;50.086;8.576;2022-12-07T06:40:02;10.90;;;7.10;;
691;SDS011;328;50.086;8.576;2022-12-07T06:42:33;10.27;;;6.90;;
691;SDS011;328;50.086;8.576;2022-12-07T06:45:01;9.93;;;6.60;;
691;SDS011;328;50.086;8.576;2022-12-07T06:47:30;11.17;;;7.23;;
691;SDS011;328;50.086;8.576;2022-12-07T06:50:08;12.23;;;6.93;;
691;SDS011;328;50.086;8.576;2022-12-07T06:52:39;11.50;;;7.47;;
691;SDS011;328;50.086;8.576;2022-12-07T06:55:07;12.83;;;6.93;;
691;SDS011;328;50.086;8.576;2022-12-07T06:57:47;14.80;;;8.50;;
691;SDS011;328;50.086;8.576;2022-12-07T07:00:16;11.90;;;6.93;;
691;SDS011;328;50.086;8.576;2022-12-07T07:02:50;12.37;;;8.40;;
691;SDS011;328;50.086;8.576;2022-12-07T07:05:18;11.40;;;7.83;;
691;SDS011;328;50.086;8.576;2022-12-07T07:07:48;12.23;;;8.10;;
691;SDS011;328;50.086;8.576;2022-12-07T07:10:36;10.80;;;6.60;;
691;SDS011;328;50.086;8.576;2022-12-07T07:13:07;9.60;;;6.80;;
691;SDS011;328;50.086;8.576;2022-12-07T07:15:37;13.87;;;8.83;;
691;SDS011;328;50.086;8.576;2022-12-07T07:18:06;12.60;;;8.10;;
691;SDS011;328;50.086;8.576;2022-12-07T07:20:34;12.13;;;7.90;;
691;SDS011;328;50.086;8.576;2022-12-07T07:23:02;12.37;;;7.63;;
691;SDS011;328;50.086;8.576;2022-12-07T07:25:29;11.70;;;7.97;;
691;SDS011;328;50.086;8.576;2022-12-07T07:27:59;10.80;;;8.20;;
691;SDS011;328;50.086;8.576;2022-12-07T07:30:30;10.43;;;7.53;;
691;SDS011;328;50.086;8.576;2022-12-07T07:32:57;12.50;;;7.60;;
691;SDS011;328;50.086;8.576;2022-12-07T07:35:27;14.00;;;8.47;;
691;SDS011;328;50.086;8.576;2022-12-07T07:37:56;11.10;;;6.73;;
691;SDS011;328;50.086;8.576;2022-12-07T07:40:24;12.20;;;7.80;;
691;SDS011;328;50.086;8.576;2022-12-07T07:42:52;14.10;;;7.57;;
691;SDS011;328;50.086;8.576;2022-12-07T07:45:21;10.63;;;8.00;;
691;SDS011;328;50.086;8.576;2022-12-07T07:47:50;13.43;;;8.73;;
691;SDS011;328;50.086;8.576;2022-12-07T07:50:17;11.60;;;7.50;;
691;SDS011;328;50.086;8.576;2022-12-07T07:52:47;10.40;;;7.30;;
691;SDS011;328;50.086;8.576;2022-12-07T07:55:14;10.30;;;7.33;;
691;SDS011;328;50.086;8.576;2022-12-07T07:57:42;10.50;;;7.63;;
691;SDS011;328;50.086;8.576;2022-12-07T08:00:18;10.60;;;8.33;;
691;SDS011;328;50.086;8.576;2022-12-07T08:02:46;14.97;;;9.50;;
691;SDS011;328;50.086;8.576;2022-12-07T08:05:13;14.03;;;10.10;;
691;SDS011;328;50.086;8.576;2022-12-07T08:07:41;14.97;;;10.50;;
691;SDS011;328;50.086;8.576;2022-12-07T08:10:11;15.43;;;11.10;;
691;SDS011;328;50.086;8.576;2022-12-07T08:12:40;13.63;;;9.53;;
691;SDS011;328;50.086;8.576;2022-12-07T08:15:22;15.73;;;9.73;;
691;SDS011;328;50.086;8.576;2022-12-07T08:17:52;14.43;;;9.13;;
691;SDS011;328;50.086;8.576;2022-12-07T08:20:19;10.57;;;7.53;;
691;SDS011;328;50.086;8.576;2022-12-07T08:22:47;11.40;;;8.70;;
691;SDS011;328;50.086;8.576;2022-12-07T08:25:16;15.13;;;9.30;;
691;SDS011;328;50.086;8.576;2022-12-07T08:27:44;13.13;;;7.93;;
691;SDS011;328;50.086;8.576;2022-12-07T08:30:12;12.90;;;9.60;;
691;SDS011;328;50.086;8.576;2022-12-07T08:32:39;14.10;;;8.20;;
691;SDS011;328;50.086;8.576;2022-12-07T08:35:07;11.77;;;9.07;;
691;SDS011;328;50.086;8.576;2022-12-07T08:37:35;11.45;;;7.40;;
691;SDS011;328;50.086;8.576;2022-12-07T08:40:05;12.00;;;7.90;;
691;SDS011;328;50.086;8.576;2022-12-07T08:42:35;10.23;;;7.90;;
691;SDS011;328;50.086;8.576;2022-12-07T08:45:07;9.47;;;7.23;;
691;SDS011;328;50.086;8.576;2022-12-07T08:47:35;11.17;;;5.93;;
691;SDS011;328;50.086;8.576;2022-12-07T08:50:05;13.30;;;7.10;;
691;SDS011;328;50.086;8.576;2022-12-07T08:52:34;8.37;;;5.83;;
691;SDS011;328;50.086;8.576;2022-12-07T08:55:02;8.53;;;6.70;;
691;SDS011;328;50.086;8.576;2022-12-07T08:57:31;14.73;;;6.40;;
691;SDS011;328;50.086;8.576;2022-12-07T09:00:01;9.13;;;7.07;;
691;SDS011;328;50.086;8.576;2022-12-07T09:02:30;9.80;;;5.97;;
691;SDS011;328;50.086;8.576;2022-12-07T09:04:58;10.00;;;6.70;;
691;SDS011;328;50.086;8.576;2022-12-07T09:07:26;11.17;;;6.83;;
691;SDS011;328;50.086;8.576;2022-12-07T09:09:54;9.80;;;5.93;;
691;SDS011;328;50.086;8.576;2022-12-07T09:12:22;13.13;;;7.23;;
691;SDS011;328;50.086;8.576;2022-12-07T09:14:49;8.10;;;6.17;;
691;SDS011;328;50.086;8.576;2022-12-07T09:17:18;9.27;;;6.27;;
691;SDS011;328;50.086;8.576;2022-12-07T09:19:46;10.70;;;6.53;;
691;SDS011;328;50.086;8.576;2022-12-07T09:22:14;9.03;;;6.17;;
691;SDS011;328;50.086;8.576;2022-12-07T09:24:41;8.73;;;6.37;;
691;SDS011;328;50.086;8.576;2022-12-07T09:27:10;11.00;;;7.40;;
691;SDS011;328;50.086;8.576;2022-12-07T09:29:38;15.07;;;6.10;;
691;SDS011;328;50.086;8.576;2022-12-07T09:32:06;11.23;;;6.60;;
691;SDS011;328;50.086;8.576;2022-12-07T09:34:38;8.30;;;5.87;;
691;SDS011;328;50.086;8.576;2022-12-07T09:37:06;8.77;;;5.37;;
691;SDS011;328;50.086;8.576;2022-12-07T09:39:34;7.73;;;5.97;;
691;SDS011;328;50.086;8.576;2022-12-07T09:42:02;11.20;;;7.10;;
691;SDS011;328;50.086;8.576;2022-12-07T09:44:31;11.13;;;6.60;;
691;SDS011;328;50.086;8.576;2022-12-07T09:46:59;9.13;;;6.33;;
691;SDS011;328;50.086;8.576;2022-12-07T09:49:27;9.90;;;6.23;;
691;SDS011;328;50.086;8.576;2022-12-07T09:52:02;7.83;;;5.13;;
691;SDS011;328;50.086;8.576;2022-12-07T09:54:42;8.30;;;5.70;;
691;SDS011;328;50.086;8.576;2022-12-07T09:57:11;8.93;;;5.90;;
691;SDS011;328;50.086;8.576;2022-12-07T09:59:39;8.30;;;6.23;;
691;SDS011;328;50.086;8.576;2022-12-07T10:02:23;9.13;;;5.70;;
691;SDS011;328;50.086;8.576;2022-12-07T10:04:52;9.93;;;6.70;;
691;SDS011;328;50.086;8.576;2022-12-07T10:07:21;8.90;;;5.80;;
691;SDS011;328;50.086;8.576;2022-12-07T10:09:49;9.07;;;5.70;;
691;SDS011;328;50.086;8.576;2022-12-07T10:12:16;8.43;;;5.93;;
691;SDS011;328;50.086;8.576;2022-12-07T10:14:52;7.93;;;4.93;;
691;SDS011;328;50.086;8.576;2022-12-07T10:17:38;7.07;;;5.20;;
691;SDS011;328;50.086;8.576;2022-12-07T10:20:18;7.47;;;5.63;;
691;SDS011;328;50.086;8.576;2022-12-07T10:23:00;8.20;;;4.67;;
691;SDS011;328;50.086;8.576;2022-12-07T10:25:29;12.20;;;5.33;;
691;SDS011;328;50.086;8.576;2022-12-07T10:28:00;11.97;;;6.27;;
691;SDS011;328;50.086;8.576;2022-12-07T10:30:29;5.90;;;4.37;;
691;SDS011;328;50.086;8.576;2022-12-07T10:32:57;3.17;;;2.80;;
691;SDS011;328;50.086;8.576;2022-12-07T10:35:25;7.90;;;3.27;;
691;SDS011;328;50.086;8.576;2022-12-07T10:37:54;4.20;;;2.43;;
691;SDS011;328;50.086;8.576;2022-12-07T10:40:26;5.00;;;2.83;;
691;SDS011;328;50.086;8.576;2022-12-07T10:43:05;4.30;;;2.03;;
691;SDS011;328;50.086;8.576;2022-12-07T10:45:44;4.47;;;;;
691;SDS011;328;50.086;8.576;2022-12-07T10:48:30;6.23;;;2.57;;
691;SDS011;328;50.086;8.576;2022-12-07T10:51:04;3.30;;;2.03;;
691;SDS011;328;50.086;8.576;2022-12-07T10:53:39;2.53;;;1.43;;
691;SDS011;328;50.086;8.576;2022-12-07T10:56:35;3.90;;;1.57;;
691;SDS011;328;50.086;8.576;2022-12-07T11:02:34;5.33;;;2.47;;
691;SDS011;328;50.086;8.576;2022-12-07T11:05:10;5.43;;;1.80;;
691;SDS011;328;50.086;8.576;2022-12-07T11:07:47;2.20;;;1.47;;
691;SDS011;328;50.086;8.576;2022-12-07T11:10:26;3.13;;;1.93;;
691;SDS011;328;50.086;8.576;2022-12-07T11:13:18;2.57;;;1.90;;
691;SDS011;328;50.086;8.576;2022-12-07T11:16:02;2.03;;;1.80;;
691;SDS011;328;50.086;8.576;2022-12-07T11:18:38;6.30;;;2.10;;
691;SDS011;328;50.086;8.576;2022-12-07T11:21:12;3.80;;;1.80;;
691;SDS011;328;50.086;8.576;2022-12-07T11:23:46;3.97;;;1.70;;
691;SDS011;328;50.086;8.576;2022-12-07T11:26:19;7.67;;;2.67;;
691;SDS011;328;50.086;8.576;2022-12-07T11:29:01;5.40;;;2.27;;
691;SDS011;328;50.086;8.576;2022-12-07T11:31:38;4.80;;;2.30;;
691;SDS011;328;50.086;8.576;2022-12-07T11:34:18;3.60;;;1.93;;
691;SDS011;328;50.086;8.576;2022-12-07T11:36:51;4.20;;;2.13;;
691;SDS011;328;50.086;8.576;2022-12-07T11:39:22;2.07;;;1.70;;
691;SDS011;328;50.086;8.576;2022-12-07T11:41:55;5.30;;;2.63;;
691;SDS011;328;50.086;8.576;2022-12-07T11:44:28;4.60;;;1.40;;
691;SDS011;328;50.086;8.576;2022-12-07T11:47:00;2.40;;;1.30;;
691;SDS011;328;50.086;8.576;2022-12-07T11:49:35;4.10;;;1.60;;
691;SDS011;328;50.086;8.576;2022-12-07T11:52:09;1.97;;;1.20;;
691;SDS011;328;50.086;8.576;2022-12-07T11:54:44;1.50;;;1.40;;
691;SDS011;328;50.086;8.576;2022-12-07T11:57:15;4.07;;;1.30;;
691;SDS011;328;50.086;8.576;2022-12-07T11:59:50;1.50;;;1.40;;
691;SDS011;328;50.086;8.576;2022-12-07T12:02:20;4.10;;;1.30;;
691;SDS011;328;50.086;8.576;2022-12-07T12:04:52;2.80;;;1.40;;
691;SDS011;328;50.086;8.576;2022-12-07T12:07:23;3.47;;;1.93;;
691;SDS011;328;50.086;8.576;2022-12-07T12:10:17;2.50;;;1.77;;
691;SDS011;328;50.086;8.576;2022-12-07T12:16:13;7.60;;;1.80;;
691;SDS011;328;50.086;8.576;2022-12-07T12:21:42;1.60;;;1.33;;
691;SDS011;328;50.086;8.576;2022-12-07T12:24:12;2.50;;;1.50;;
691;SDS011;328;50.086;8.576;2022-12-07T12:26:47;2.63;;;1.40;;
691;SDS011;328;50.086;8.576;2022-12-07T12:29:21;1.43;;;1.20;;
691;SDS011;328;50.086;8.576;2022-12-07T12:32:10;2.63;;;1.40;;
691;SDS011;328;50.086;8.576;2022-12-07T12:34:42;2.80;;;1.43;;
691;SDS011;328;50.086;8.576;2022-12-07T12:37:44;5.80;;;1.83;;
691;SDS011;328;50.086;8.576;2022-12-07T12:55:28;2.87;;;1.50;;
691;SDS011;328;50.086;8.576;2022-12-07T12:58:29;2.80;;;1.20;;
691;SDS011;328;50.086;8.576;2022-12-07T13:04:23;3.20;;;1.60;;
691;SDS011;328;50.086;8.576;2022-12-07T13:06:52;3.70;;;1.53;;
691;SDS011;328;50.086;8.576;2022-12-07T13:09:27;2.40;;;1.43;;
691;SDS011;328;50.086;8.576;2022-12-07T13:12:00;3.23;;;2.03;;
691;SDS011;328;50.086;8.576;2022-12-07T13:20:44;2.30;;;1.43;;
691;SDS011;328;50.086;8.576;2022-12-07T13:23:16;3.43;;;1.23;;
691;SDS011;328;50.086;8.576;2022-12-07T13:25:59;2.13;;;1.67;;
691;SDS011;328;50.086;8.576;2022-12-07T13:28:32;2.67;;;1.53;;
691;SDS011;328;50.086;8.576;2022-12-07T13:31:09;3.27;;;2.03;;
691;SDS011;328;50.086;8.576;2022-12-07T13:33:42;1.73;;;1.40;;
691;SDS011;328;50.086;8.576;2022-12-07T13:36:12;2.90;;;1.83;;
691;SDS011;328;50.086;8.576;2022-12-07T13:38:48;2.53;;;1.50;;
691;SDS011;328;50.086;8.576;2022-12-07T13:41:18;2.47;;;1.90;;
691;SDS011;328;50.086;8.576;2022-12-07T13:43:48;2.90;;;1.30;;
691;SDS011;328;50.086;8.576;2022-12-07T13:46:19;2.83;;;2.20;;
691;SDS011;328;50.086;8.576;2022-12-07T13:48:51;2.33;;;1.60;;
691;SDS011;328;50.086;8.576;2022-12-07T13:51:21;5.53;;;1.40;;
691;SDS011;328;50.086;8.576;2022-12-07T13:53:50;2.80;;;1.50;;
691;SDS011;328;50.086;8.576;2022-12-07T13:56:22;1.93;;;1.53;;
691;SDS011;328;50.086;8.576;2022-12-07T13:58:53;1.83;;;1.30;;
691;SDS011;328;50.086;8.576;2022-12-07T14:01:21;5.60;;;2.00;;
691;SDS011;328;50.086;8.576;2022-12-07T14:03:49;4.40;;;1.60;;
691;SDS011;328;50.086;8.576;2022-12-07T14:06:19;7.27;;;1.50;;
691;SDS011;328;50.086;8.576;2022-12-07T14:09:06;2.20;;;1.53;;
691;SDS011;328;50.086;8.576;2022-12-07T14:11:36;8.13;;;1.57;;
691;SDS011;328;50.086;8.576;2022-12-07T14:14:04;5.23;;;1.97;;
691;SDS011;328;50.086;8.576;2022-12-07T14:16:32;4.57;;;1.90;;
691;SDS011;328;50.086;8.576;2022-12-07T14:19:02;1.80;;;1.20;;
691;SDS011;328;50.086;8.576;2022-12-07T14:21:33;4.43;;;1.80;;
691;SDS011;328;50.086;8.576;2022-12-07T14:24:04;4.07;;;2.03;;
691;SDS011;328;50.086;8.576;2022-12-07T14:26:38;3.20;;;1.73;;
691;SDS011;328;50.086;8.576;2022-12-07T14:29:19;4.47;;;1.83;;
691;SDS011;328;50.086;8.576;2022-12-07T14:31:48;3.00;;;1.90;;
691;SDS011;328;50.086;8.576;2022-12-07T14:34:16;3.63;;;1.97;;
691;SDS011;328;50.086;8.576;2022-12-07T14:36:44;2.50;;;1.20;;
691;SDS011;328;50.086;8.576;2022-12-07T14:39:11;2.00;;;1.13;;
691;SDS011;328;50.086;8.576;2022-12-07T14:41:40;1.63;;;1.27;;
691;SDS011;328;50.086;8.576;2022-12-07T14:44:18;3.73;;;1.70;;
691;SDS011;328;50.086;8.576;2022-12-07T14:46:50;3.40;;;1.70;;
691;SDS011;328;50.086;8.576;2022-12-07T14:49:38;4.20;;;1.83;;
691;SDS011;328;50.086;8.576;2022-12-07T14:52:06;4.47;;;1.50;;
691;SDS011;328;50.086;8.576;2022-12-07T14:54:59;2.83;;;1.90;;
691;SDS011;328;50.086;8.576;2022-12-07T14:57:29;3.77;;;1.97;;
691;SDS011;328;50.086;8.576;2022-12-07T14:59:56;2.67;;;1.50;;
691;SDS011;328;50.086;8.576;2022-12-07T15:02:24;3.57;;;2.30;;
691;SDS011;328;50.086;8.576;2022-12-07T15:04:52;5.20;;;2.57;;
691;SDS011;328;50.086;8.576;2022-12-07T15:07:19;3.43;;;2.17;;
691;SDS011;328;50.086;8.576;2022-12-07T15:09:47;3.03;;;1.60;;
691;SDS011;328;50.086;8.576;2022-12-07T15:12:15;3.87;;;1.90;;
691;SDS011;328;50.086;8.576;2022-12-07T15:14:44;2.37;;;1.67;;
691;SDS011;328;50.086;8.576;2022-12-07T15:17:12;4.17;;;1.80;;
691;SDS011;328;50.086;8.576;2022-12-07T15:19:55;3.20;;;1.90;;
691;SDS011;328;50.086;8.576;2022-12-07T15:22:22;4.43;;;2.53;;
691;SDS011;328;50.086;8.576;2022-12-07T15:24:50;2.87;;;2.30;;
691;SDS011;328;50.086;8.576;2022-12-07T15:27:17;4.20;;;2.50;;
691;SDS011;328;50.086;8.576;2022-12-07T15:29:46;3.23;;;1.53;;
691;SDS011;328;50.086;8.576;2022-12-07T15:32:14;3.60;;;2.10;;
691;SDS011;328;50.086;8.576;2022-12-07T15:34:42;3.03;;;1.83;;
691;SDS011;328;50.086;8.576;2022-12-07T15:37:09;2.80;;;1.90;;
691;SDS011;328;50.086;8.576;2022-12-07T15:39:37;7.73;;;2.50;;
691;SDS011;328;50.086;8.576;2022-12-07T15:42:05;8.97;;;2.50;;
691;SDS011;328;50.086;8.576;2022-12-07T15:44:32;3.93;;;1.40;;
691;SDS011;328;50.086;8.576;2022-12-07T15:47:19;5.57;;;2.50;;
691;SDS011;328;50.086;8.576;2022-12-07T15:49:47;3.83;;;2.10;;
691;SDS011;328;50.086;8.576;2022-12-07T15:52:15;4.23;;;1.80;;
691;SDS011;328;50.086;8.576;2022-12-07T15:54:43;2.13;;;1.30;;
691;SDS011;328;50.086;8.576;2022-12-07T15:57:10;2.50;;;1.70;;
691;SDS011;328;50.086;8.576;2022-12-07T15:59:38;3.60;;;1.90;;
691;SDS011;328;50.086;8.576;2022-12-07T16:02:06;2.40;;;1.47;;
691;SDS011;328;50.086;8.576;2022-12-07T16:04:36;2.60;;;1.37;;
691;SDS011;328;50.086;8.576;2022-12-07T16:07:04;2.70;;;1.73;;
691;SDS011;328;50.086;8.576;2022-12-07T16:09:31;8.23;;;1.87;;
691;SDS011;328;50.086;8.576;2022-12-07T16:11:59;2.47;;;1.57;;
691;SDS011;328;50.086;8.576;2022-12-07T16:14:27;1.87;;;1.50;;
691;SDS011;328;50.086;8.576;2022-12-07T16:16:57;2.40;;;1.27;;
691;SDS011;328;50.086;8.576;2022-12-07T16:19:25;5.47;;;1.40;;
691;SDS011;328;50.086;8.576;2022-12-07T16:21:55;5.20;;;1.70;;
691;SDS011;328;50.086;8.576;2022-12-07T16:24:22;3.57;;;1.53;;
691;SDS011;328;50.086;8.576;2022-12-07T16:26:50;1.10;;;0.97;;
691;SDS011;328;50.086;8.576;2022-12-07T16:29:18;10.53;;;1.77;;
691;SDS011;328;50.086;8.576;2022-12-07T16:31:47;3.37;;;1.20;;
691;SDS011;328;50.086;8.576;2022-12-07T16:34:15;7.60;;;1.83;;
691;SDS011;328;50.086;8.576;2022-12-07T16:36:42;3.30;;;1.93;;
691;SDS011;328;50.086;8.576;2022-12-07T16:39:31;2.23;;;1.80;;